Time;durP1;ratioP1;P1;durP2;ratioP2;P2;SDS_P1;SDS_P2;PMS_P1;PMS_P2;Temp;Humidity;BMP_temperature;BMP_pressure;BME280_temperature;BME280_humidity;BME280_pressure;Samples;Min_cycle;Max_cycle;Signal;HPM_P1;HPM_P2
2023/10/18 00:00:58;;;;;;;11.65;8.23;;;6.00;99.90;;;;;;5101816;27;20393;-69
2023/10/18 00:03:34;;;;;;;17.85;9.60;;;6.00;99.90;;;;;;5098797;28;20047;-69
2023/10/18 00:06:11;;;;;;;12.57;9.18;;;6.00;99.90;;;;;;5103887;28;20035;-69
2023/10/18 00:08:38;;;;;;;12.93;9.02;;;6.00;99.90;;;;;;5099109;27;20070;-69
2023/10/18 00:11:04;;;;;;;13.32;10.38;;;6.00;99.90;;;;;;5101460;28;20035;-69
2023/10/18 00:13:31;;;;;;;15.05;9.88;;;6.00;99.90;;;;;;5104696;28;20478;-69
2023/10/18 00:16:05;;;;;;;15.60;10.57;;;5.90;99.90;;;;;;5132025;27;20055;-69
2023/10/18 00:18:32;;;;;;;15.50;10.27;;;6.00;99.90;;;;;;5102885;28;20148;-69
2023/10/18 00:21:03;;;;;;;16.98;10.70;;;6.00;99.90;;;;;;5132089;27;20131;-69
2023/10/18 00:23:32;;;;;;;14.35;10.13;;;5.90;99.90;;;;;;5098617;28;20046;-69
2023/10/18 00:26:05;;;;;;;14.05;10.85;;;5.90;99.90;;;;;;5100889;28;20493;-69
2023/10/18 00:28:31;;;;;;;13.80;10.73;;;5.90;99.90;;;;;;5102304;28;20458;-69
2023/10/18 00:30:58;;;;;;;17.48;11.05;;;5.90;99.90;;;;;;5102832;28;20031;-69
2023/10/18 00:33:24;;;;;;;14.35;10.32;;;5.90;99.90;;;;;;5102186;28;20047;-69
2023/10/18 00:35:53;;;;;;;19.08;11.73;;;5.90;99.90;;;;;;5109298;27;20031;-69
2023/10/18 00:38:18;;;;;;;22.75;11.23;;;5.90;99.90;;;;;;5107155;27;20406;-69
2023/10/18 00:40:45;;;;;;;17.88;11.07;;;6.00;99.90;;;;;;5136259;27;20122;-69
2023/10/18 00:43:22;;;;;;;14.98;10.38;;;6.00;99.90;;;;;;5135806;27;20497;-69
2023/10/18 00:45:51;;;;;;;16.27;12.20;;;6.00;99.90;;;;;;5105718;27;20362;-69
2023/10/18 00:48:26;;;;;;;16.52;12.18;;;5.90;99.90;;;;;;5106692;27;20051;-69
2023/10/18 00:50:53;;;;;;;18.75;12.93;;;5.90;99.90;;;;;;5140609;27;20040;-69
2023/10/18 00:53:20;;;;;;;18.30;12.25;;;6.00;99.90;;;;;;5104103;27;20039;-69
2023/10/18 00:55:57;;;;;;;15.15;12.05;;;6.00;99.90;;;;;;5108080;27;20050;-69
2023/10/18 00:58:23;;;;;;;17.85;12.90;;;5.90;99.90;;;;;;5106106;27;20501;-69
2023/10/18 01:00:51;;;;;;;17.52;12.68;;;5.90;99.90;;;;;;5106162;27;20040;-69
2023/10/18 01:03:28;;;;;;;19.45;13.10;;;5.90;99.90;;;;;;5103095;28;20048;-69
2023/10/18 01:06:09;;;;;;;18.58;13.32;;;5.90;99.90;;;;;;5105213;27;20040;-69
2023/10/18 01:08:37;;;;;;;24.75;13.57;;;5.90;99.90;;;;;;5104262;27;20047;-69
2023/10/18 01:11:07;;;;;;;18.67;13.95;;;5.90;99.90;;;;;;5135224;27;20134;-69
2023/10/18 01:13:38;;;;;;;20.55;13.55;;;5.90;99.90;;;;;;5102985;28;20147;-69
2023/10/18 01:16:14;;;;;;;18.98;13.50;;;5.90;99.90;;;;;;5105833;27;20486;-69
2023/10/18 01:18:43;;;;;;;21.15;14.18;;;5.90;99.90;;;;;;5106102;27;20844;-69
2023/10/18 01:21:16;;;;;;;23.52;13.82;;;5.90;99.90;;;;;;5139695;27;20047;-69
2023/10/18 01:23:49;;;;;;;18.75;14.73;;;5.90;99.90;;;;;;5105830;27;20375;-69
2023/10/18 01:26:15;;;;;;;22.42;14.23;;;5.90;99.90;;;;;;5106397;27;20042;-69
2023/10/18 01:28:42;;;;;;;22.63;15.82;;;6.00;99.90;;;;;;5103654;27;20039;-69
2023/10/18 01:31:09;;;;;;;20.40;14.80;;;5.90;99.90;;;;;;5106796;28;20108;-69
2023/10/18 01:33:39;;;;;;;22.33;15.02;;;6.00;99.90;;;;;;5104234;28;20051;-69
2023/10/18 01:36:05;;;;;;;20.60;14.73;;;6.00;99.90;;;;;;5105615;27;20039;-69
2023/10/18 01:38:31;;;;;;;19.67;15.27;;;6.40;99.90;;;;;;5136240;27;20108;-69
2023/10/18 01:41:00;;;;;;;22.17;16.15;;;6.00;99.90;;;;;;5102005;28;20049;-69
2023/10/18 01:43:28;;;;;;;24.42;15.98;;;6.00;99.90;;;;;;5102569;28;20039;-69
2023/10/18 01:45:54;;;;;;;22.38;14.68;;;6.00;99.90;;;;;;5103211;28;20458;-69
2023/10/18 01:48:20;;;;;;;24.52;15.85;;;6.00;99.90;;;;;;5101853;27;20040;-69
2023/10/18 01:50:47;;;;;;;24.92;15.93;;;6.00;99.90;;;;;;5137372;27;20058;-69
2023/10/18 01:53:16;;;;;;;21.48;15.00;;;6.00;99.90;;;;;;5103099;27;20048;-69
2023/10/18 01:55:46;;;;;;;24.35;16.42;;;6.00;99.90;;;;;;5135251;27;20144;-69
2023/10/18 01:58:13;;;;;;;24.75;16.30;;;6.00;99.90;;;;;;5138741;27;20063;-69
2023/10/18 02:00:44;;;;;;;20.70;14.85;;;6.00;99.90;;;;;;5134414;27;20039;-69
2023/10/18 02:03:11;;;;;;;24.55;16.70;;;6.00;99.90;;;;;;5102873;27;20466;-69
2023/10/18 02:05:44;;;;;;;22.80;14.85;;;6.00;99.90;;;;;;5106358;28;20075;-69
2023/10/18 02:08:11;;;;;;;23.23;16.45;;;6.40;99.90;;;;;;5106435;27;20036;-69
2023/10/18 02:10:40;;;;;;;21.17;15.95;;;6.00;99.90;;;;;;5105163;27;20051;-69
2023/10/18 02:13:13;;;;;;;22.48;16.60;;;6.00;99.90;;;;;;5111562;27;20039;-69
2023/10/18 02:15:42;;;;;;;22.63;16.77;;;6.00;99.90;;;;;;5106798;27;20076;-69
2023/10/18 02:18:08;;;;;;;26.33;17.70;;;6.00;99.90;;;;;;5104723;28;20036;-69
2023/10/18 02:20:36;;;;;;;21.50;15.90;;;6.00;99.90;;;;;;5134754;27;20039;-69
2023/10/18 02:23:02;;;;;;;20.85;15.85;;;5.90;99.90;;;;;;5091809;27;20044;-69
2023/10/18 02:25:43;;;;;;;23.10;16.25;;;6.00;99.90;;;;;;5107403;27;20397;-69
2023/10/18 02:28:22;;;;;;;22.50;16.50;;;6.00;99.90;;;;;;5102649;27;20032;-69
2023/10/18 02:30:55;;;;;;;24.35;16.33;;;6.00;99.90;;;;;;5131763;27;20051;-69
2023/10/18 02:33:23;;;;;;;22.23;16.67;;;6.00;99.90;;;;;;5100685;27;20065;-69
2023/10/18 02:35:49;;;;;;;23.00;16.98;;;5.90;99.90;;;;;;5101526;27;20035;-69
2023/10/18 02:38:14;;;;;;;24.85;17.77;;;5.90;99.90;;;;;;5102982;27;20051;-69
2023/10/18 02:40:40;;;;;;;23.65;17.10;;;5.80;99.90;;;;;;5102766;28;20071;-69
2023/10/18 02:43:11;;;;;;;24.23;17.73;;;5.90;99.90;;;;;;5103823;27;20051;-69
2023/10/18 02:45:39;;;;;;;23.30;16.92;;;5.90;99.90;;;;;;5135227;27;20063;-69
2023/10/18 02:48:08;;;;;;;24.95;17.20;;;5.90;99.90;;;;;;5099973;28;20031;-69
2023/10/18 02:50:34;;;;;;;23.75;16.65;;;5.80;99.90;;;;;;5133260;27;20063;-69
2023/10/18 02:53:00;;;;;;;28.67;17.27;;;5.80;99.90;;;;;;5105246;27;20043;-69
2023/10/18 02:55:26;;;;;;;23.20;16.67;;;5.80;99.90;;;;;;5101485;27;20154;-69
2023/10/18 02:57:52;;;;;;;25.73;18.15;;;5.80;99.90;;;;;;5132174;27;20040;-69
2023/10/18 03:00:18;;;;;;;23.75;16.65;;;5.80;99.90;;;;;;5103204;27;20709;-69
2023/10/18 03:02:44;;;;;;;24.13;16.85;;;5.80;99.90;;;;;;5101793;27;20057;-69
2023/10/18 03:05:10;;;;;;;21.40;16.10;;;5.80;99.90;;;;;;5103923;27;20378;-69
2023/10/18 03:07:36;;;;;;;24.73;17.58;;;5.80;99.90;;;;;;5095319;27;20080;-69
2023/10/18 03:10:11;;;;;;;22.48;15.93;;;5.90;99.90;;;;;;5099366;27;20352;-69
2023/10/18 03:12:44;;;;;;;20.70;15.43;;;5.90;99.90;;;;;;5099227;28;20043;-69
2023/10/18 03:15:14;;;;;;;22.77;16.50;;;5.80;99.90;;;;;;5101799;27;20066;-69
2023/10/18 03:17:40;;;;;;;21.77;16.23;;;5.80;99.90;;;;;;5097495;27;20406;-69
2023/10/18 03:20:21;;;;;;;23.77;17.92;;;5.80;99.90;;;;;;5104304;27;20031;-69
2023/10/18 03:22:49;;;;;;;22.02;16.23;;;5.80;99.90;;;;;;5105401;27;20126;-69
2023/10/18 03:25:26;;;;;;;20.55;15.77;;;5.80;99.90;;;;;;5103657;27;20031;-69
2023/10/18 03:28:03;;;;;;;23.20;16.70;;;5.80;99.90;;;;;;5102169;27;20132;-69
2023/10/18 03:30:45;;;;;;;23.23;16.20;;;5.90;99.90;;;;;;5102794;27;20040;-69
2023/10/18 03:33:14;;;;;;;24.73;16.92;;;5.90;99.90;;;;;;5098967;28;20142;-69
2023/10/18 03:35:40;;;;;;;23.50;17.02;;;5.80;99.90;;;;;;5099704;28;20028;-69
2023/10/18 03:38:21;;;;;;;22.17;16.05;;;5.80;99.90;;;;;;5103747;28;20046;-69
2023/10/18 03:41:07;;;;;;;26.10;16.02;;;5.80;99.90;;;;;;5100733;27;20043;-69
2023/10/18 03:43:36;;;;;;;20.13;15.02;;;5.90;99.90;;;;;;5101630;28;20528;-69
2023/10/18 03:48:54;;;;;;;21.05;16.45;;;5.90;99.90;;;;;;5098062;28;20126;-69
2023/10/18 03:51:26;;;;;;;;;;;5.80;99.90;;;;;;5102064;28;20048;-68
2023/10/18 03:53:55;;;;;;;23.65;17.05;;;5.80;99.90;;;;;;5135422;27;19915;-68
2023/10/18 03:56:22;;;;;;;19.85;14.80;;;5.80;99.90;;;;;;5102979;27;20051;-68
2023/10/18 03:59:00;;;;;;;19.58;16.30;;;5.90;99.90;;;;;;5100708;27;20089;-68
2023/10/18 04:01:39;;;;;;;19.75;16.20;;;5.80;99.90;;;;;;5100549;28;20044;-68
2023/10/18 04:04:06;;;;;;;17.92;15.82;;;5.90;99.90;;;;;;5099498;28;20035;-68
2023/10/18 04:06:35;;;;;;;20.55;15.80;;;5.90;99.90;;;;;;5101112;27;20039;-68
2023/10/18 04:09:13;;;;;;;24.55;17.70;;;5.80;99.90;;;;;;5130209;27;20126;-69
2023/10/18 04:11:39;;;;;;;22.67;16.85;;;5.80;99.90;;;;;;5101056;28;20378;-69
2023/10/18 04:14:05;;;;;;;22.45;16.63;;;5.90;99.90;;;;;;5136911;27;20371;-69
2023/10/18 04:16:30;;;;;;;21.42;14.68;;;5.90;99.90;;;;;;5101543;28;20066;-69
2023/10/18 04:18:58;;;;;;;19.40;16.08;;;5.90;99.90;;;;;;5102712;28;20050;-69
2023/10/18 04:21:27;;;;;;;20.17;16.13;;;5.90;99.90;;;;;;5104352;28;20043;-69
2023/10/18 04:23:56;;;;;;;20.52;15.93;;;5.90;99.90;;;;;;5103328;28;20113;-68
2023/10/18 04:26:24;;;;;;;22.23;17.35;;;5.90;99.90;;;;;;5101495;28;20036;-68
2023/10/18 04:28:55;;;;;;;19.48;15.35;;;6.00;99.90;;;;;;5101358;28;20062;-68
2023/10/18 04:31:21;;;;;;;19.77;16.50;;;6.00;99.90;;;;;;5102634;28;20126;-68
2023/10/18 04:33:50;;;;;;;20.45;16.75;;;6.00;99.90;;;;;;5132659;27;20554;-68
2023/10/18 04:36:20;;;;;;;22.27;15.77;;;5.90;99.90;;;;;;5099982;28;20494;-68
2023/10/18 04:38:47;;;;;;;20.42;15.48;;;5.90;99.90;;;;;;5098993;28;20093;-68
2023/10/18 04:43:49;;;;;;;20.52;15.32;;;6.00;99.90;;;;;;5136022;27;20051;-68
2023/10/18 04:46:14;;;;;;;19.25;15.20;;;5.90;99.90;;;;;;5104560;28;20507;-68
2023/10/18 04:51:33;;;;;;;19.27;15.60;;;6.00;99.90;;;;;;5096434;28;20043;-68
2023/10/18 04:54:08;;;;;;;18.40;14.93;;;6.00;99.90;;;;;;5100393;28;20404;-68
2023/10/18 04:56:44;;;;;;;18.20;14.95;;;6.00;99.90;;;;;;5095397;28;20544;-69
2023/10/18 05:04:24;;;;;;;18.52;15.63;;;5.80;99.90;;;;;;5132663;27;20112;-68
2023/10/18 05:06:58;;;;;;;17.42;15.02;;;5.90;99.90;;;;;;5102207;28;20174;-68
2023/10/18 05:09:30;;;;;;;19.42;14.90;;;5.90;99.90;;;;;;5103750;28;20421;-68
2023/10/18 05:12:06;;;;;;;18.42;15.23;;;5.90;99.90;;;;;;5102179;28;20048;-68
2023/10/18 05:14:50;;;;;;;19.13;14.95;;;5.90;99.90;;;;;;5099814;28;20079;-68
2023/10/18 05:17:23;;;;;;;20.05;15.82;;;5.90;99.90;;;;;;5099875;28;20126;-68
2023/10/18 05:19:50;;;;;;;18.00;15.80;;;5.80;99.90;;;;;;5101968;28;20044;-68
2023/10/18 05:22:19;;;;;;;19.90;15.50;;;5.80;99.90;;;;;;5101734;28;20059;-68
2023/10/18 05:24:47;;;;;;;20.35;16.35;;;5.70;99.90;;;;;;5103590;27;20057;-68
2023/10/18 05:27:28;;;;;;;20.98;16.20;;;5.70;99.90;;;;;;5104644;27;20094;-68
2023/10/18 05:29:57;;;;;;;17.88;15.70;;;5.70;99.90;;;;;;5106867;28;20499;-68
2023/10/18 05:32:37;;;;;;;18.58;15.40;;;5.70;99.90;;;;;;5102678;28;20046;-68
2023/10/18 05:35:21;;;;;;;17.60;15.35;;;5.70;99.90;;;;;;5105875;27;20051;-68
2023/10/18 05:37:51;;;;;;;18.80;15.82;;;5.60;99.90;;;;;;5104182;27;20051;-69
2023/10/18 05:43:03;;;;;;;18.42;15.40;;;5.50;99.90;;;;;;5105044;27;20035;-68
2023/10/18 05:45:31;;;;;;;21.48;16.45;;;5.60;99.90;;;;;;5103974;28;20036;-68
2023/10/18 05:48:03;;;;;;;19.40;16.13;;;5.60;99.90;;;;;;5108580;28;20074;-68
2023/10/18 05:50:35;;;;;;;20.50;15.73;;;5.60;99.90;;;;;;5102659;28;20043;-68
2023/10/18 05:53:10;;;;;;;18.25;15.45;;;5.60;99.90;;;;;;5085691;28;20075;-68
2023/10/18 05:55:38;;;;;;;20.70;16.42;;;5.50;99.90;;;;;;5136131;27;20039;-68
2023/10/18 05:58:05;;;;;;;19.83;16.27;;;5.50;99.90;;;;;;5117324;27;20043;-68
2023/10/18 06:00:37;;;;;;;20.30;15.25;;;5.60;99.90;;;;;;5136032;27;20052;-68
2023/10/18 06:03:03;;;;;;;19.38;15.07;;;5.50;99.90;;;;;;5099409;28;20043;-68
2023/10/18 06:05:33;;;;;;;19.27;16.33;;;5.60;99.90;;;;;;5136953;27;20494;-68
2023/10/18 06:08:01;;;;;;;19.88;15.80;;;5.60;99.90;;;;;;5105284;27;20032;-68
2023/10/18 06:10:26;;;;;;;21.05;16.83;;;5.60;99.90;;;;;;5117037;27;20055;-69
2023/10/18 06:13:05;;;;;;;21.15;15.55;;;5.60;99.90;;;;;;5106910;27;20043;-68
2023/10/18 06:15:34;;;;;;;18.95;14.93;;;5.60;99.90;;;;;;5134167;27;20444;-68
2023/10/18 06:18:05;;;;;;;17.77;15.23;;;5.70;99.90;;;;;;5088272;28;20124;-68
2023/10/18 06:20:34;;;;;;;18.65;16.35;;;5.70;99.90;;;;;;5099478;27;20079;-68
2023/10/18 06:23:09;;;;;;;18.50;15.57;;;5.70;99.90;;;;;;5099613;28;20047;-68
2023/10/18 06:25:37;;;;;;;21.08;15.95;;;5.70;99.90;;;;;;5103159;28;20036;-68
2023/10/18 06:28:07;;;;;;;17.27;14.60;;;5.70;99.90;;;;;;5101455;28;20413;-68
2023/10/18 06:30:39;;;;;;;18.98;15.30;;;5.80;99.90;;;;;;5098536;28;20044;-68
2023/10/18 06:33:09;;;;;;;18.83;15.35;;;5.80;99.90;;;;;;5101486;27;20122;-68
2023/10/18 06:35:50;;;;;;;20.48;15.02;;;5.70;99.90;;;;;;5134061;27;20379;-68
2023/10/18 06:38:35;;;;;;;16.33;14.57;;;5.80;99.90;;;;;;5100418;28;20070;-68
2023/10/18 06:41:02;;;;;;;20.20;15.65;;;5.80;99.90;;;;;;5101189;28;20122;-68
2023/10/18 06:43:28;;;;;;;17.70;14.98;;;5.80;99.90;;;;;;5103477;28;20065;-68
2023/10/18 06:45:54;;;;;;;15.63;13.70;;;5.90;99.90;;;;;;5099121;28;20044;-68
2023/10/18 06:48:22;;;;;;;17.10;14.68;;;5.90;99.90;;;;;;5099446;28;20028;-68
2023/10/18 06:50:48;;;;;;;18.00;14.57;;;5.90;99.90;;;;;;5101421;28;20085;-68
2023/10/18 06:53:15;;;;;;;17.85;14.82;;;6.00;99.90;;;;;;5099998;28;20031;-68
2023/10/18 06:58:41;;;;;;;16.42;14.52;;;6.00;99.90;;;;;;5134239;27;20481;-68
2023/10/18 07:01:19;;;;;;;16.90;14.32;;;6.10;99.90;;;;;;5102853;28;20044;-68
2023/10/18 07:03:47;;;;;;;17.35;13.80;;;6.10;99.90;;;;;;5123480;27;20043;-68
2023/10/18 07:06:18;;;;;;;19.65;14.60;;;6.10;99.90;;;;;;5106343;27;20072;-68
2023/10/18 07:08:45;;;;;;;24.40;14.95;;;6.10;99.90;;;;;;5132984;27;20052;-68
2023/10/18 07:11:16;;;;;;;17.80;14.35;;;6.10;99.90;;;;;;5133791;27;20063;-68
2023/10/18 07:13:46;;;;;;;17.52;13.80;;;6.20;99.90;;;;;;5135489;27;20054;-68
2023/10/18 07:16:15;;;;;;;16.40;14.68;;;6.20;99.90;;;;;;5134299;27;20031;-68
2023/10/18 07:18:45;;;;;;;15.27;13.68;;;6.20;99.90;;;;;;5117957;27;20048;-67
2023/10/18 07:21:18;;;;;;;19.08;14.07;;;6.20;99.90;;;;;;5136712;27;20036;-68
2023/10/18 07:23:46;;;;;;;15.15;13.13;;;6.30;99.90;;;;;;5098624;28;20035;-68
2023/10/18 07:26:14;;;;;;;17.00;14.15;;;6.30;99.90;;;;;;5101824;28;20084;-68
2023/10/18 07:28:43;;;;;;;17.95;13.38;;;6.40;99.90;;;;;;5100506;28;20081;-68
2023/10/18 07:31:10;;;;;;;16.80;14.13;;;6.40;99.90;;;;;;5103328;28;20124;-68
2023/10/18 07:33:42;;;;;;;15.88;13.65;;;6.50;99.90;;;;;;5105191;27;20050;-68
2023/10/18 07:36:12;;;;;;;18.10;14.50;;;6.50;99.90;;;;;;5105620;27;20122;-68
2023/10/18 07:38:39;;;;;;;15.85;13.80;;;6.60;99.90;;;;;;5098728;28;20036;-68
2023/10/18 07:41:08;;;;;;;15.77;13.20;;;6.60;99.90;;;;;;5101602;27;20032;-68
2023/10/18 07:43:35;;;;;;;17.77;12.20;;;6.60;99.90;;;;;;5103815;28;20085;-67
2023/10/18 07:46:09;;;;;;;15.63;13.02;;;6.60;99.90;;;;;;5102283;27;20040;-68
2023/10/18 07:48:37;;;;;;;17.65;13.55;;;6.60;99.90;;;;;;5103664;27;20100;-68
2023/10/18 07:51:08;;;;;;;17.85;12.93;;;6.70;99.90;;;;;;5105056;27;20032;-68
2023/10/18 07:53:35;;;;;;;16.80;12.70;;;6.70;99.90;;;;;;5129388;27;20051;-68
2023/10/18 07:56:00;;;;;;;14.20;12.65;;;6.80;99.90;;;;;;5099152;28;20040;-68
2023/10/18 07:58:32;;;;;;;13.57;12.15;;;6.80;99.90;;;;;;5097774;28;20477;-68
2023/10/18 08:03:44;;;;;;;14.32;12.63;;;6.90;99.90;;;;;;5063550;28;20032;-68
2023/10/18 08:06:26;;;;;;;14.82;12.50;;;6.90;99.90;;;;;;5103806;28;20426;-68
2023/10/18 08:08:52;;;;;;;13.35;11.50;;;7.00;99.90;;;;;;5132794;27;20079;-68
2023/10/18 08:11:18;;;;;;;13.85;11.82;;;7.00;99.90;;;;;;5104882;28;20131;-68
2023/10/18 08:13:45;;;;;;;15.18;12.27;;;7.00;99.90;;;;;;5101205;28;20050;-68
2023/10/18 08:16:19;;;;;;;16.35;12.20;;;7.10;99.90;;;;;;5103741;28;20046;-68
2023/10/18 08:18:56;;;;;;;12.88;11.32;;;7.10;99.90;;;;;;5102185;28;20058;-68
2023/10/18 08:21:37;;;;;;;14.60;11.77;;;7.10;99.90;;;;;;5133476;27;20040;-68
2023/10/18 08:24:20;;;;;;;12.70;11.30;;;7.20;99.90;;;;;;5103515;28;20040;-68
2023/10/18 08:26:47;;;;;;;12.98;10.98;;;7.40;99.90;;;;;;5098654;28;21418;-68
2023/10/18 08:29:16;;;;;;;11.98;10.32;;;7.30;99.90;;;;;;5099650;28;20477;-68
2023/10/18 08:34:28;;;;;;;14.43;9.68;;;7.50;99.90;;;;;;5074735;28;20500;-68
2023/10/18 08:37:03;;;;;;;10.55;9.55;;;7.60;99.90;;;;;;5101976;28;20036;-68
2023/10/18 08:39:29;;;;;;;11.52;9.93;;;7.60;99.90;;;;;;5133452;27;20532;-68
2023/10/18 08:42:11;;;;;;;11.93;10.45;;;7.70;99.90;;;;;;5101870;28;20063;-68
2023/10/18 08:44:38;;;;;;;13.57;10.02;;;7.70;99.90;;;;;;5100047;28;20481;-68
2023/10/18 08:49:54;;;;;;;13.57;10.82;;;7.80;99.90;;;;;;5132562;27;20048;-68
2023/10/18 08:52:20;;;;;;;15.98;9.48;;;8.00;99.90;;;;;;5105050;28;20036;-68
2023/10/18 08:54:48;;;;;;;10.88;9.00;;;8.00;99.90;;;;;;5105385;27;20048;-68
2023/10/18 08:57:15;;;;;;;10.55;8.88;;;8.10;99.90;;;;;;5102209;27;20040;-68
2023/10/18 08:59:48;;;;;;;11.55;9.10;;;8.10;99.90;;;;;;5103625;28;20048;-68
2023/10/18 09:02:18;;;;;;;11.90;9.20;;;8.20;99.90;;;;;;5104673;27;20035;-68
2023/10/18 09:04:54;;;;;;;10.73;9.27;;;8.20;99.90;;;;;;5104947;27;20036;-68
2023/10/18 09:07:23;;;;;;;11.98;8.98;;;8.30;99.90;;;;;;5137279;27;20094;-68
2023/10/18 09:09:57;;;;;;;11.55;8.43;;;8.30;99.90;;;;;;5104697;27;20132;-68
2023/10/18 09:15:29;;;;;;;;;;;8.50;99.90;;;;;;5101608;28;20035;-68
2023/10/18 09:18:05;;;;;;;9.55;8.57;;;8.50;99.90;;;;;;5110109;28;19995;-68
2023/10/18 09:20:31;;;;;;;;;;;8.60;99.90;;;;;;5109860;28;20159;-68
2023/10/18 09:23:03;;;;;;;;;;;8.60;99.90;;;;;;5106389;27;19974;-68
2023/10/18 09:28:32;;;;;;;10.88;9.05;;;8.70;99.90;;;;;;5103596;27;20040;-68
2023/10/18 09:31:09;;;;;;;12.05;8.63;;;8.80;99.90;;;;;;5102605;28;20052;-68
2023/10/18 09:33:36;;;;;;;10.77;9.02;;;8.80;99.90;;;;;;5102528;27;20035;-68
2023/10/18 09:36:02;;;;;;;10.90;7.93;;;8.90;99.90;;;;;;5104763;28;20039;-68
2023/10/18 09:38:39;;;;;;;9.43;8.07;;;8.90;99.90;;;;;;5103196;27;20043;-68
2023/10/18 09:41:05;;;;;;;11.27;8.70;;;8.90;99.90;;;;;;5105217;27;20040;-68
2023/10/18 09:43:32;;;;;;;9.82;7.68;;;9.00;99.90;;;;;;5134656;27;20047;-68
2023/10/18 09:45:59;;;;;;;9.27;7.93;;;9.10;99.90;;;;;;5102348;27;20123;-68
2023/10/18 09:48:26;;;;;;;9.93;7.55;;;9.10;99.90;;;;;;5103560;28;20032;-68
2023/10/18 09:50:53;;;;;;;9.50;8.48;;;9.10;99.90;;;;;;5103808;27;20066;-68
2023/10/18 09:53:25;;;;;;;10.32;8.40;;;9.20;99.90;;;;;;5101051;28;20036;-68
2023/10/18 09:55:53;;;;;;;8.70;7.80;;;9.30;99.90;;;;;;5101786;28;20048;-68
2023/10/18 09:58:22;;;;;;;8.60;7.72;;;9.30;99.90;;;;;;5102590;27;20452;-68
2023/10/18 10:00:55;;;;;;;8.27;7.40;;;9.40;99.90;;;;;;5104132;28;20557;-68
2023/10/18 10:03:25;;;;;;;9.07;7.43;;;9.50;99.90;;;;;;5099961;28;20745;-68
2023/10/18 10:05:52;;;;;;;8.65;7.45;;;9.70;99.90;;;;;;5101195;27;20043;-68
2023/10/18 10:08:19;;;;;;;7.53;6.72;;;9.60;99.90;;;;;;5102390;28;20084;-68
2023/10/18 10:10:46;;;;;;;9.00;6.93;;;9.60;99.90;;;;;;5100632;28;20563;-68
2023/10/18 10:13:25;;;;;;;7.80;7.00;;;9.70;99.90;;;;;;5101784;28;20035;-68
2023/10/18 10:15:57;;;;;;;7.78;6.53;;;9.70;99.90;;;;;;5106060;28;20047;-68
2023/10/18 10:18:28;;;;;;;9.00;7.30;;;9.80;99.90;;;;;;5104117;28;20059;-68
2023/10/18 10:21:00;;;;;;;7.90;6.55;;;9.90;99.90;;;;;;5100047;28;20046;-68
2023/10/18 10:23:26;;;;;;;8.18;6.50;;;9.80;99.90;;;;;;5101875;28;20036;-68
2023/10/18 10:26:27;;;;;;;8.23;6.25;;;9.90;99.90;;;;;;5104618;28;20093;-68
2023/10/18 10:31:55;;;;;;;9.05;6.65;;;10.00;99.90;;;;;;5099162;28;20048;-68
2023/10/18 10:34:34;;;;;;;10.20;6.45;;;10.10;99.90;;;;;;5103061;28;20742;-68
2023/10/18 10:37:06;;;;;;;6.63;5.97;;;10.10;99.90;;;;;;5133070;27;20536;-69
2023/10/18 10:39:35;;;;;;;7.82;5.85;;;10.30;99.90;;;;;;5102374;28;20054;-69
2023/10/18 10:42:19;;;;;;;9.77;6.93;;;10.30;99.90;;;;;;5099975;28;20039;-69
2023/10/18 10:47:50;;;;;;;8.93;6.15;;;10.40;99.90;;;;;;5082187;28;20045;-69
2023/10/18 10:50:42;;;;;;;7.22;6.25;;;10.50;99.90;;;;;;5105582;28;20097;-69
2023/10/18 10:53:08;;;;;;;7.68;6.43;;;10.50;99.90;;;;;;5135050;27;20089;-69
2023/10/18 10:55:34;;;;;;;6.95;5.82;;;10.50;99.90;;;;;;5100645;28;20046;-68
2023/10/18 10:58:15;;;;;;;6.93;6.15;;;10.60;99.90;;;;;;5103997;28;20036;-69
2023/10/18 11:00:59;;;;;;;7.22;5.40;;;10.60;99.90;;;;;;5101438;28;20044;-69
2023/10/18 11:03:30;;;;;;;8.55;7.03;;;10.60;99.90;;;;;;5100678;28;20040;-69
2023/10/18 11:05:58;;;;;;;7.00;6.18;;;10.60;99.90;;;;;;5100239;28;20036;-70
2023/10/18 11:08:25;;;;;;;7.45;5.85;;;10.70;99.90;;;;;;5104594;28;20050;-69
2023/10/18 11:10:51;;;;;;;7.05;6.10;;;10.80;99.90;;;;;;5103767;28;20036;-69
2023/10/18 11:13:22;;;;;;;8.20;5.93;;;10.90;99.90;;;;;;5099816;28;20047;-69
2023/10/18 11:15:50;;;;;;;6.85;5.70;;;10.80;99.90;;;;;;5098939;27;20084;-69
2023/10/18 11:18:22;;;;;;;8.23;5.72;;;10.90;99.90;;;;;;5099696;28;20074;-69
2023/10/18 11:21:19;;;;;;;8.07;6.20;;;11.00;99.90;;;;;;5103338;28;20123;-69
2023/10/18 11:23:37;;;;;;;6.90;6.00;;;11.00;99.90;;;;;;5099300;28;20452;-69
2023/10/18 11:26:08;;;;;;;8.43;6.05;;;11.10;99.90;;;;;;5101152;28;20115;-69
2023/10/18 11:28:37;;;;;;;6.47;5.03;;;11.10;99.90;;;;;;5101538;28;20110;-69
2023/10/18 11:31:04;;;;;;;8.10;5.07;;;11.20;99.90;;;;;;5101791;28;20047;-69
2023/10/18 11:33:54;;;;;;;6.20;4.43;;;11.30;99.90;;;;;;5085052;28;20027;-69
2023/10/18 11:36:20;;;;;;;6.95;5.55;;;11.30;99.90;;;;;;5102239;28;20125;-69
2023/10/18 11:41:36;;;;;;;5.93;5.32;;;11.50;99.90;;;;;;5099149;28;20099;-69
2023/10/18 11:44:06;;;;;;;6.25;5.15;;;11.60;99.90;;;;;;5101757;28;20042;-69
2023/10/18 11:46:52;;;;;;;5.95;5.35;;;11.60;99.90;;;;;;5100711;28;20055;-69
2023/10/18 11:49:21;;;;;;;6.10;5.50;;;11.60;99.90;;;;;;5085294;28;20059;-69
2023/10/18 11:51:49;;;;;;;6.15;5.43;;;11.60;99.90;;;;;;5100619;27;20598;-69
2023/10/18 11:54:34;;;;;;;5.47;4.95;;;11.60;99.90;;;;;;5103587;28;20071;-69
2023/10/18 11:57:01;;;;;;;6.22;5.25;;;11.60;99.90;;;;;;5098350;28;20496;-69
2023/10/18 11:59:28;;;;;;;6.03;5.03;;;11.60;99.90;;;;;;5100027;28;20048;-69
2023/10/18 12:01:58;;;;;;;6.88;5.13;;;11.70;99.90;;;;;;5101025;28;20039;-69
2023/10/18 12:04:28;;;;;;;5.63;4.50;;;11.70;99.90;;;;;;5123884;27;20046;-69
2023/10/18 12:06:57;;;;;;;5.32;4.70;;;11.70;99.90;;;;;;5101259;28;20036;-69
2023/10/18 12:11:50;;;;;;;5.72;5.03;;;11.70;99.90;;;;;;5096616;28;20067;-69
2023/10/18 12:14:15;;;;;;;5.57;4.88;;;11.70;99.90;;;;;;5101487;28;20044;-69
2023/10/18 12:16:43;;;;;;;6.00;4.93;;;11.70;99.90;;;;;;5102422;28;20040;-69
2023/10/18 12:19:10;;;;;;;5.38;4.68;;;11.80;99.90;;;;;;5100687;28;20047;-69
2023/10/18 12:21:39;;;;;;;5.88;4.40;;;11.90;99.90;;;;;;5102812;28;20131;-69
2023/10/18 12:24:07;;;;;;;4.65;4.18;;;11.70;99.90;;;;;;5101289;28;20126;-69
2023/10/18 12:26:37;;;;;;;5.78;5.18;;;11.70;99.90;;;;;;5097408;28;20040;-69
2023/10/18 12:29:04;;;;;;;5.53;5.03;;;11.70;99.90;;;;;;5104430;27;20073;-69
2023/10/18 12:31:34;;;;;;;6.15;4.78;;;11.80;99.90;;;;;;5137305;27;20048;-69
2023/10/18 12:34:00;;;;;;;5.43;4.72;;;11.90;99.90;;;;;;5109091;27;20110;-69
2023/10/18 12:36:38;;;;;;;8.00;5.00;;;11.80;99.90;;;;;;5107245;28;20043;-69
2023/10/18 12:39:10;;;;;;;5.78;4.78;;;11.80;99.90;;;;;;5106508;27;20036;-69
2023/10/18 12:41:39;;;;;;;6.85;4.88;;;11.90;99.90;;;;;;5104749;28;20039;-67
2023/10/18 12:44:11;;;;;;;6.22;5.28;;;11.90;99.90;;;;;;5109848;28;20068;-67
2023/10/18 12:46:37;;;;;;;7.00;5.38;;;12.00;99.90;;;;;;5105332;27;20121;-67
2023/10/18 12:49:05;;;;;;;6.32;4.75;;;12.00;99.90;;;;;;5101761;27;20031;-67
2023/10/18 12:51:31;;;;;;;8.10;6.15;;;12.00;99.90;;;;;;5106687;28;20426;-67
2023/10/18 12:54:02;;;;;;;5.60;4.93;;;12.10;99.90;;;;;;5135952;27;20085;-67
2023/10/18 12:58:55;;;;;;;6.03;5.43;;;12.10;99.90;;;;;;5102668;28;20056;-67
2023/10/18 13:01:22;;;;;;;5.78;5.18;;;12.10;99.90;;;;;;5104721;27;20031;-67
2023/10/18 13:03:57;;;;;;;7.13;4.97;;;12.00;99.90;;;;;;5117426;27;20375;-67
2023/10/18 13:06:30;;;;;;;6.05;4.55;;;12.10;99.90;;;;;;5136487;27;20039;-67
2023/10/18 13:14:24;;;;;;;5.50;4.55;;;12.20;99.90;;;;;;5110348;27;20047;-67
2023/10/18 13:16:51;;;;;;;5.25;4.75;;;12.20;99.90;;;;;;5134846;27;20047;-68
2023/10/18 13:19:19;;;;;;;5.95;4.85;;;12.30;99.90;;;;;;5102532;27;20048;-67
2023/10/18 13:21:47;;;;;;;7.35;4.40;;;12.60;99.90;;;;;;5101562;27;20058;-67
2023/10/18 13:24:17;;;;;;;6.57;5.13;;;12.20;99.90;;;;;;5103862;27;20036;-67
2023/10/18 13:26:47;;;;;;;15.77;5.30;;;12.20;99.90;;;;;;5101486;27;20043;-67
2023/10/18 13:29:31;;;;;;;6.82;5.47;;;12.30;99.90;;;;;;5109736;27;20035;-67
2023/10/18 13:31:57;;;;;;;6.47;5.22;;;12.20;99.90;;;;;;5107531;27;20051;-67
2023/10/18 13:34:24;;;;;;;6.45;5.22;;;12.10;99.90;;;;;;5102546;27;20044;-67
2023/10/18 13:36:54;;;;;;;6.65;5.18;;;12.10;99.90;;;;;;5100606;28;20039;-67
2023/10/18 13:39:22;;;;;;;8.13;5.68;;;12.00;99.90;;;;;;5105544;27;20039;-67
2023/10/18 13:41:49;;;;;;;7.13;5.45;;;11.90;99.90;;;;;;5105858;27;20050;-67
2023/10/18 13:44:23;;;;;;;6.53;5.72;;;11.80;99.90;;;;;;5103188;28;20039;-67
2023/10/18 13:46:54;;;;;;;10.30;5.70;;;11.80;99.90;;;;;;5101661;27;20051;-67
2023/10/18 13:49:23;;;;;;;7.70;5.30;;;11.70;99.90;;;;;;5103434;27;20520;-67
2023/10/18 13:51:49;;;;;;;6.72;5.80;;;11.70;99.90;;;;;;5105367;27;20040;-67